Time;durP1;ratioP1;P1;durP2;ratioP2;P2;SDS_P1;SDS_P2;PMS_P1;PMS_P2;Temp;Humidity;BMP_temperature;BMP_pressure;BME280_temperature;BME280_humidity;BME280_pressure;Samples;Min_cycle;Max_cycle;Signal;HPM_P1;HPM_P2
2022/10/16 00:00:35;;;;;;;6.78;1.33;;;18.10;82.90;;;;;;5090864;28;20028;-73
2022/10/16 00:03:01;;;;;;;5.00;1.98;;;18.10;83.10;;;;;;5091175;28;20020;-72
2022/10/16 00:05:27;;;;;;;4.68;1.58;;;18.10;83.00;;;;;;5092160;28;20031;-72
2022/10/16 00:07:52;;;;;;;2.80;1.58;;;18.10;83.10;;;;;;5074273;28;20024;-73
2022/10/16 00:10:18;;;;;;;2.97;1.63;;;18.10;83.10;;;;;;5092244;28;20021;-73
2022/10/16 00:12:43;;;;;;;3.28;1.65;;;18.10;83.20;;;;;;5094219;28;20102;-73
2022/10/16 00:15:09;;;;;;;3.60;1.73;;;18.00;83.10;;;;;;5094892;28;20055;-72
2022/10/16 00:17:35;;;;;;;4.05;1.90;;;18.00;83.20;;;;;;5111810;28;20016;-73
2022/10/16 00:20:00;;;;;;;6.07;1.73;;;18.10;83.10;;;;;;5116519;28;20036;-72
2022/10/16 00:22:26;;;;;;;2.22;1.80;;;18.00;83.20;;;;;;5116353;28;20020;-72
2022/10/16 00:24:52;;;;;;;5.05;2.03;;;18.00;83.20;;;;;;5115471;28;20576;-73
2022/10/16 00:27:17;;;;;;;4.82;1.70;;;18.00;83.30;;;;;;5116233;28;20023;-73
2022/10/16 00:29:43;;;;;;;4.60;1.63;;;18.00;83.30;;;;;;5115009;28;20026;-73
2022/10/16 00:32:09;;;;;;;4.05;2.10;;;18.00;83.30;;;;;;5115186;28;20024;-73
2022/10/16 00:34:34;;;;;;;3.58;1.63;;;18.00;83.30;;;;;;5116125;28;20020;-73
2022/10/16 00:37:00;;;;;;;3.92;1.95;;;18.00;83.30;;;;;;5115096;28;20024;-73
2022/10/16 00:39:26;;;;;;;3.92;1.58;;;18.00;83.40;;;;;;5116077;28;20121;-73
2022/10/16 00:41:51;;;;;;;2.58;1.50;;;18.10;83.50;;;;;;5114615;28;20024;-73
2022/10/16 00:44:52;;;;;;;5.88;1.90;;;18.00;83.50;;;;;;5116221;28;20028;-73
2022/10/16 00:47:48;;;;;;;3.05;1.58;;;18.00;83.40;;;;;;5101071;28;20028;-73
2022/10/16 00:50:28;;;;;;;2.65;1.63;;;18.10;83.50;;;;;;5095489;28;20501;-73
2022/10/16 00:52:54;;;;;;;3.05;1.67;;;18.00;83.40;;;;;;5095587;28;20524;-73
2022/10/16 00:55:19;;;;;;;7.72;1.90;;;18.00;83.40;;;;;;5077349;28;20031;-73
2022/10/16 00:57:45;;;;;;;2.95;1.77;;;18.00;83.50;;;;;;5095222;28;20025;-73
2022/10/16 01:00:13;;;;;;;3.53;1.50;;;18.00;83.50;;;;;;5077464;28;20103;-73
2022/10/16 01:02:39;;;;;;;3.70;1.80;;;18.00;83.60;;;;;;5093855;28;20024;-73
2022/10/16 01:05:04;;;;;;;3.63;1.80;;;18.00;83.50;;;;;;5094236;28;20069;-73
2022/10/16 01:07:50;;;;;;;5.18;2.25;;;18.00;83.50;;;;;;5094031;28;20024;-73
2022/10/16 01:10:24;;;;;;;3.28;1.60;;;18.00;83.60;;;;;;5079651;28;20423;-73
2022/10/16 01:13:07;;;;;;;3.05;1.50;;;18.00;83.50;;;;;;5095158;28;20020;-73
2022/10/16 01:15:37;;;;;;;2.08;1.45;;;18.00;83.50;;;;;;5079409;28;20016;-73
2022/10/16 01:18:16;;;;;;;4.28;1.63;;;18.00;83.50;;;;;;5113403;28;20031;-73
2022/10/16 01:20:50;;;;;;;2.78;1.52;;;18.00;83.60;;;;;;5114265;28;20485;-73
2022/10/16 01:23:37;;;;;;;3.78;1.70;;;18.00;83.60;;;;;;5097648;28;20069;-73
2022/10/16 01:26:14;;;;;;;3.50;1.70;;;18.00;83.60;;;;;;5114908;28;20031;-73
2022/10/16 01:28:54;;;;;;;2.47;1.30;;;18.00;83.70;;;;;;5113932;28;20076;-73
2022/10/16 01:31:22;;;;;;;2.38;1.65;;;18.00;83.70;;;;;;5114093;28;20027;-73
2022/10/16 01:33:51;;;;;;;4.22;1.50;;;18.00;83.70;;;;;;5097080;28;20020;-73
2022/10/16 01:36:20;;;;;;;1.80;1.33;;;18.00;83.70;;;;;;5080626;28;20027;-73
2022/10/16 01:38:46;;;;;;;1.83;1.40;;;18.00;83.70;;;;;;5113846;28;20015;-73
2022/10/16 01:41:17;;;;;;;5.97;1.85;;;18.00;83.90;;;;;;5113730;28;20023;-72
2022/10/16 01:43:47;;;;;;;4.22;1.60;;;18.00;83.70;;;;;;5113822;28;20027;-73
2022/10/16 01:46:13;;;;;;;2.90;1.58;;;18.00;83.70;;;;;;5108186;28;20028;-73
2022/10/16 01:48:38;;;;;;;3.25;1.27;;;18.00;83.70;;;;;;5093052;28;20434;-73
2022/10/16 01:51:07;;;;;;;2.55;1.77;;;18.00;83.90;;;;;;5093381;28;20031;-73
2022/10/16 01:53:32;;;;;;;2.58;1.40;;;18.00;83.90;;;;;;5076208;28;20040;-73
2022/10/16 01:55:58;;;;;;;2.40;1.60;;;18.00;83.80;;;;;;5076291;28;20028;-73
2022/10/16 01:58:24;;;;;;;2.38;1.60;;;18.00;83.80;;;;;;5076183;28;20024;-73
2022/10/16 02:00:49;;;;;;;2.53;1.23;;;18.00;83.80;;;;;;5093195;28;20027;-73
2022/10/16 02:03:17;;;;;;;3.75;1.48;;;18.00;83.90;;;;;;5076062;28;20020;-73
2022/10/16 02:05:51;;;;;;;3.38;1.67;;;18.00;83.90;;;;;;5076182;28;20028;-73
2022/10/16 02:08:17;;;;;;;3.50;1.40;;;18.00;83.90;;;;;;5092774;28;20024;-73
2022/10/16 02:10:43;;;;;;;2.88;1.58;;;18.00;83.90;;;;;;5092556;28;20027;-73
2022/10/16 02:13:14;;;;;;;5.13;1.63;;;18.00;83.90;;;;;;5092930;28;20107;-73
2022/10/16 02:15:40;;;;;;;3.97;1.58;;;18.00;83.90;;;;;;5093764;28;20027;-73
2022/10/16 02:18:06;;;;;;;2.53;1.55;;;18.00;83.90;;;;;;5112693;28;20020;-73
2022/10/16 02:20:34;;;;;;;2.20;1.17;;;18.00;83.90;;;;;;5095944;28;20036;-73
2022/10/16 02:22:59;;;;;;;2.83;1.30;;;18.00;83.90;;;;;;5096464;28;20069;-73
2022/10/16 02:25:31;;;;;;;2.70;1.48;;;18.00;83.90;;;;;;5112725;28;20028;-73
2022/10/16 02:28:29;;;;;;;3.40;2.10;;;18.00;83.90;;;;;;5096338;28;20020;-73
2022/10/16 02:31:01;;;;;;;3.97;1.35;;;18.00;83.90;;;;;;5100840;28;20093;-73
2022/10/16 02:33:26;;;;;;;1.52;1.25;;;18.00;83.90;;;;;;5096198;28;20509;-73
2022/10/16 02:35:52;;;;;;;1.98;1.30;;;17.90;83.80;;;;;;5095377;28;20020;-73
2022/10/16 02:38:18;;;;;;;5.15;1.58;;;18.00;84.00;;;;;;5113665;28;20568;-73
2022/10/16 02:40:44;;;;;;;3.50;1.80;;;17.90;83.90;;;;;;5112506;28;20061;-72
2022/10/16 02:43:09;;;;;;;3.90;1.20;;;18.00;83.90;;;;;;5095562;28;20032;-72
2022/10/16 02:45:35;;;;;;;3.58;1.27;;;17.90;83.90;;;;;;5095241;28;20099;-72
2022/10/16 02:48:00;;;;;;;2.00;1.30;;;17.90;84.00;;;;;;5092043;28;20510;-73
2022/10/16 02:50:26;;;;;;;2.17;1.33;;;18.00;84.00;;;;;;5093293;28;20111;-73
2022/10/16 02:52:52;;;;;;;2.65;1.30;;;17.90;83.90;;;;;;5092559;28;20039;-73
2022/10/16 02:55:17;;;;;;;2.00;1.40;;;17.90;83.90;;;;;;5092095;28;20020;-73
2022/10/16 02:57:43;;;;;;;2.03;1.45;;;18.00;83.90;;;;;;5093096;28;20081;-73
2022/10/16 03:00:10;;;;;;;1.42;1.30;;;17.90;83.90;;;;;;5092146;28;20028;-73
2022/10/16 03:02:35;;;;;;;3.65;1.75;;;17.90;83.90;;;;;;5091679;28;20024;-73
2022/10/16 03:05:01;;;;;;;5.30;1.50;;;18.00;84.00;;;;;;5092033;28;20035;-73
2022/10/16 03:07:26;;;;;;;2.83;1.30;;;17.90;84.00;;;;;;5091550;28;20028;-73
2022/10/16 03:09:52;;;;;;;2.30;1.30;;;17.90;84.00;;;;;;5093055;28;20028;-73
2022/10/16 03:12:18;;;;;;;4.07;1.25;;;18.00;85.10;;;;;;5093060;28;20016;-73
2022/10/16 03:14:43;;;;;;;2.38;1.50;;;17.90;84.00;;;;;;5092707;28;20405;-73
2022/10/16 03:17:09;;;;;;;2.05;1.23;;;17.90;84.00;;;;;;5104741;28;20023;-73
2022/10/16 03:19:35;;;;;;;2.20;1.30;;;17.90;84.00;;;;;;5113169;28;20028;-73
2022/10/16 03:22:01;;;;;;;3.17;1.10;;;17.90;84.00;;;;;;5113036;28;20051;-73
2022/10/16 03:24:27;;;;;;;2.22;1.30;;;17.90;84.10;;;;;;5111825;28;20446;-72
2022/10/16 03:26:52;;;;;;;2.13;1.17;;;17.90;84.00;;;;;;5111872;28;20031;-73
2022/10/16 03:29:18;;;;;;;3.17;1.33;;;17.90;84.00;;;;;;5112975;28;20020;-73
2022/10/16 03:31:44;;;;;;;3.20;1.30;;;17.90;84.00;;;;;;5111846;28;20024;-73
2022/10/16 03:34:09;;;;;;;1.95;1.20;;;17.90;84.00;;;;;;5113166;28;20413;-72
2022/10/16 03:36:35;;;;;;;3.55;1.17;;;17.90;84.00;;;;;;5111270;28;20020;-73
2022/10/16 03:39:01;;;;;;;2.25;1.00;;;17.90;84.00;;;;;;5111695;28;20035;-73
2022/10/16 03:41:26;;;;;;;1.00;0.82;;;17.90;84.00;;;;;;5113005;28;20020;-73
2022/10/16 03:43:52;;;;;;;3.38;1.60;;;17.90;84.00;;;;;;5112673;28;20024;-73
2022/10/16 03:46:17;;;;;;;2.80;1.25;;;17.90;84.00;;;;;;5106519;28;20032;-73
2022/10/16 03:48:43;;;;;;;3.35;1.20;;;17.90;84.00;;;;;;5091002;28;20028;-73
2022/10/16 03:51:09;;;;;;;3.75;1.23;;;17.90;84.00;;;;;;5092272;28;20023;-72
2022/10/16 03:53:34;;;;;;;2.72;1.33;;;17.90;84.00;;;;;;5092139;28;20051;-73
2022/10/16 03:56:00;;;;;;;4.18;1.65;;;17.90;84.00;;;;;;5092371;28;20035;-72
2022/10/16 03:58:26;;;;;;;1.60;1.45;;;17.90;84.00;;;;;;5074462;28;20028;-73
2022/10/16 04:00:52;;;;;;;1.35;1.00;;;17.90;84.00;;;;;;5092254;28;20034;-73
2022/10/16 04:03:18;;;;;;;2.65;1.42;;;17.90;84.10;;;;;;5092414;28;20028;-72
2022/10/16 04:05:44;;;;;;;1.77;1.35;;;17.90;84.00;;;;;;5091974;28;20402;-72
2022/10/16 04:08:10;;;;;;;1.98;1.13;;;17.90;84.10;;;;;;5092182;28;20024;-73
2022/10/16 04:10:35;;;;;;;2.45;1.50;;;17.90;84.00;;;;;;5092137;28;20020;-73
2022/10/16 04:13:01;;;;;;;2.35;1.15;;;17.90;84.10;;;;;;5091071;28;20471;-72
2022/10/16 04:15:27;;;;;;;3.60;1.33;;;17.90;84.00;;;;;;5092092;28;20024;-72
2022/10/16 04:17:52;;;;;;;2.83;1.52;;;17.80;84.00;;;;;;5110060;28;20425;-72
2022/10/16 04:20:18;;;;;;;3.45;1.30;;;17.90;84.00;;;;;;5112182;28;20016;-73
2022/10/16 04:22:44;;;;;;;2.15;1.30;;;17.90;84.00;;;;;;5111299;28;20031;-72
2022/10/16 04:25:11;;;;;;;2.28;1.35;;;17.80;84.00;;;;;;5094424;28;20073;-72
2022/10/16 04:27:36;;;;;;;1.67;1.30;;;17.80;83.90;;;;;;5112432;28;20023;-73
2022/10/16 04:30:02;;;;;;;4.40;1.20;;;17.90;84.10;;;;;;5112290;28;20474;-73
2022/10/16 04:32:28;;;;;;;1.55;1.25;;;17.90;84.10;;;;;;5111323;28;20016;-73
2022/10/16 04:34:53;;;;;;;2.45;0.95;;;17.90;84.00;;;;;;5112097;28;20031;-73
2022/10/16 04:37:22;;;;;;;2.20;1.30;;;17.80;84.00;;;;;;5111165;28;20454;-72
2022/10/16 04:39:48;;;;;;;1.67;1.02;;;17.80;83.90;;;;;;5110756;28;20019;-73
2022/10/16 04:42:14;;;;;;;1.83;1.10;;;17.80;83.90;;;;;;5112458;28;20056;-73
2022/10/16 04:44:39;;;;;;;3.22;1.33;;;17.80;83.90;;;;;;5112019;28;20068;-73
2022/10/16 04:47:05;;;;;;;1.30;1.10;;;17.80;84.00;;;;;;5098015;28;20028;-73
2022/10/16 04:49:30;;;;;;;2.72;1.00;;;17.90;84.10;;;;;;5091617;28;20024;-73
2022/10/16 04:51:56;;;;;;;3.13;1.20;;;17.80;84.00;;;;;;5090442;28;20031;-73
2022/10/16 04:54:22;;;;;;;1.98;1.17;;;17.90;84.00;;;;;;5091681;28;20048;-73
2022/10/16 04:56:50;;;;;;;2.20;1.55;;;17.80;84.00;;;;;;5090719;28;20035;-73
2022/10/16 04:59:15;;;;;;;1.42;1.00;;;17.80;84.00;;;;;;5095290;28;20016;-72
2022/10/16 05:01:41;;;;;;;2.40;1.10;;;17.80;84.10;;;;;;5090862;28;20397;-72
2022/10/16 05:04:07;;;;;;;2.38;1.10;;;17.80;85.10;;;;;;5095563;28;20027;-73
2022/10/16 05:06:32;;;;;;;2.13;1.20;;;17.80;84.00;;;;;;5095480;28;20447;-73
2022/10/16 05:08:58;;;;;;;7.35;1.10;;;17.90;84.20;;;;;;5090815;28;20402;-72
2022/10/16 05:11:24;;;;;;;5.40;1.40;;;17.80;84.00;;;;;;5095148;28;20031;-73
2022/10/16 05:13:49;;;;;;;1.75;1.05;;;17.90;84.00;;;;;;5095067;28;20078;-73
2022/10/16 05:16:15;;;;;;;1.58;0.98;;;17.90;84.10;;;;;;5099409;28;20031;-73
2022/10/16 05:18:40;;;;;;;3.28;1.27;;;17.90;84.10;;;;;;5097046;28;20027;-73
2022/10/16 05:21:06;;;;;;;3.67;1.33;;;17.80;84.00;;;;;;5115373;28;20028;-72
2022/10/16 05:23:32;;;;;;;2.85;1.20;;;17.90;84.00;;;;;;5115564;28;20031;-72
2022/10/16 05:25:58;;;;;;;1.90;1.20;;;17.80;84.00;;;;;;5109988;28;20020;-73
2022/10/16 05:28:24;;;;;;;3.55;1.20;;;17.90;84.10;;;;;;5093545;28;20398;-73
2022/10/16 05:30:50;;;;;;;1.88;1.00;;;17.90;84.10;;;;;;5093490;28;20035;-72
2022/10/16 05:33:16;;;;;;;1.65;1.20;;;17.80;84.00;;;;;;5094544;28;20020;-73
2022/10/16 05:35:42;;;;;;;4.57;1.25;;;17.80;84.10;;;;;;5094918;28;20056;-73
2022/10/16 05:38:07;;;;;;;1.48;1.02;;;17.80;84.10;;;;;;5094841;28;20142;-72
2022/10/16 05:40:33;;;;;;;1.17;0.90;;;17.80;84.10;;;;;;5093153;28;20087;-72
2022/10/16 05:42:58;;;;;;;4.05;1.05;;;17.80;84.20;;;;;;5094886;28;20105;-72
2022/10/16 05:45:24;;;;;;;1.50;1.10;;;17.80;84.30;;;;;;5094695;28;20111;-72
2022/10/16 05:47:51;;;;;;;2.13;0.95;;;17.80;84.20;;;;;;5094007;28;20383;-72
2022/10/16 05:50:16;;;;;;;4.97;1.17;;;17.80;84.20;;;;;;5094712;28;20027;-73
2022/10/16 05:52:42;;;;;;;4.65;1.20;;;17.80;84.30;;;;;;5092928;28;20040;-73
2022/10/16 05:55:08;;;;;;;5.05;1.92;;;17.80;84.30;;;;;;5094610;28;20028;-73
2022/10/16 05:57:33;;;;;;;4.00;1.25;;;17.80;84.30;;;;;;5094485;28;20074;-72
2022/10/16 05:59:59;;;;;;;10.00;1.60;;;17.80;84.30;;;;;;5093067;28;20446;-73
2022/10/16 06:02:25;;;;;;;3.70;1.38;;;17.80;84.30;;;;;;5094095;28;20056;-73
2022/10/16 06:04:53;;;;;;;1.30;0.93;;;17.80;84.30;;;;;;5094012;28;20450;-73
2022/10/16 06:07:19;;;;;;;5.95;1.33;;;17.80;84.30;;;;;;5092833;28;20059;-73
2022/10/16 06:09:51;;;;;;;6.20;1.30;;;17.80;84.30;;;;;;5093046;28;20062;-73
2022/10/16 06:12:16;;;;;;;2.42;1.42;;;17.80;84.30;;;;;;5093103;28;20108;-73
2022/10/16 06:14:42;;;;;;;4.43;1.10;;;17.80;84.30;;;;;;5092855;28;20107;-73
2022/10/16 06:17:08;;;;;;;2.13;1.45;;;17.80;84.30;;;;;;5105410;28;20024;-73
2022/10/16 06:19:33;;;;;;;1.75;0.90;;;17.80;84.30;;;;;;5114364;28;20024;-73
2022/10/16 06:22:00;;;;;;;2.05;1.27;;;17.80;84.30;;;;;;5113090;28;20085;-73
2022/10/16 06:24:25;;;;;;;1.00;0.82;;;17.80;84.30;;;;;;5114525;28;20042;-73
2022/10/16 06:26:51;;;;;;;2.03;0.70;;;17.80;84.30;;;;;;5114016;28;20024;-73
2022/10/16 06:29:17;;;;;;;1.98;1.00;;;17.80;84.30;;;;;;5113023;28;20101;-73
2022/10/16 06:31:42;;;;;;;2.33;1.27;;;17.80;84.30;;;;;;5113782;28;20019;-73
2022/10/16 06:34:10;;;;;;;7.28;1.77;;;17.70;84.30;;;;;;5113999;28;20023;-72
2022/10/16 06:36:36;;;;;;;2.97;1.13;;;17.80;84.30;;;;;;5112642;28;20474;-73
2022/10/16 06:39:02;;;;;;;5.88;1.10;;;17.80;84.30;;;;;;5112667;28;20028;-73
2022/10/16 06:41:27;;;;;;;2.75;1.13;;;17.80;84.30;;;;;;5112609;28;20157;-73
2022/10/16 06:43:53;;;;;;;2.22;1.20;;;17.80;84.30;;;;;;5113833;28;20031;-72
2022/10/16 06:46:21;;;;;;;2.35;1.05;;;17.70;84.20;;;;;;5107321;28;20035;-73
2022/10/16 06:48:46;;;;;;;2.00;1.30;;;17.70;84.30;;;;;;5092037;28;20081;-72
2022/10/16 06:51:14;;;;;;;1.88;1.10;;;17.80;84.30;;;;;;5092094;28;20082;-73
2022/10/16 06:53:42;;;;;;;1.50;1.02;;;17.70;84.30;;;;;;5075255;28;20043;-73
2022/10/16 06:56:09;;;;;;;3.95;1.15;;;17.80;84.30;;;;;;5075279;28;20055;-73
2022/10/16 06:58:34;;;;;;;4.65;1.27;;;17.80;84.30;;;;;;5093171;28;20060;-73
2022/10/16 07:01:00;;;;;;;2.08;1.25;;;17.80;84.30;;;;;;5092944;28;20096;-73
2022/10/16 07:03:25;;;;;;;3.22;1.10;;;17.70;84.20;;;;;;5091860;28;20062;-73
2022/10/16 07:05:51;;;;;;;2.50;1.00;;;17.80;84.30;;;;;;5092891;28;20099;-72
2022/10/16 07:08:17;;;;;;;1.92;1.10;;;17.70;84.30;;;;;;5092983;28;20054;-73
2022/10/16 07:10:42;;;;;;;2.03;0.90;;;17.70;84.20;;;;;;5093031;28;20028;-73
2022/10/16 07:13:08;;;;;;;1.80;0.90;;;17.70;84.20;;;;;;5092885;28;20032;-73
2022/10/16 07:15:34;;;;;;;2.78;1.27;;;17.70;84.20;;;;;;5092782;28;20012;-72
2022/10/16 07:17:59;;;;;;;3.05;1.30;;;17.70;84.20;;;;;;5111737;28;20047;-73
2022/10/16 07:20:25;;;;;;;1.60;0.88;;;17.70;84.20;;;;;;5111825;28;20022;-72
2022/10/16 07:22:51;;;;;;;2.22;0.98;;;17.70;84.20;;;;;;5112073;28;20020;-72
2022/10/16 07:25:17;;;;;;;1.85;1.10;;;17.70;84.20;;;;;;5094773;28;20385;-73
2022/10/16 07:27:42;;;;;;;2.58;1.20;;;17.70;84.20;;;;;;5113140;28;20031;-73
2022/10/16 07:30:08;;;;;;;1.17;0.93;;;17.70;84.20;;;;;;5112794;28;20019;-73
2022/10/16 07:32:34;;;;;;;1.30;0.73;;;17.70;84.20;;;;;;5111684;28;20020;-72
2022/10/16 07:34:59;;;;;;;1.90;1.00;;;17.70;84.30;;;;;;5111786;28;20031;-72
2022/10/16 07:37:25;;;;;;;5.22;1.33;;;17.70;84.20;;;;;;5112910;28;20530;-72
2022/10/16 07:39:51;;;;;;;2.55;0.90;;;17.70;84.40;;;;;;5112888;28;20026;-72
2022/10/16 07:42:17;;;;;;;1.25;0.80;;;17.70;84.40;;;;;;5113063;28;20517;-73
2022/10/16 07:44:43;;;;;;;1.10;0.80;;;17.70;84.40;;;;;;5111403;28;20055;-73
2022/10/16 07:47:08;;;;;;;1.33;0.90;;;17.70;84.40;;;;;;5099287;28;20044;-72
2022/10/16 07:49:34;;;;;;;1.00;0.80;;;17.70;84.40;;;;;;5092461;28;20069;-72
2022/10/16 07:51:59;;;;;;;3.53;1.20;;;17.70;84.40;;;;;;5091186;28;20019;-73
2022/10/16 07:54:25;;;;;;;0.80;0.80;;;17.70;84.40;;;;;;5092231;28;20043;-73
2022/10/16 07:56:51;;;;;;;2.15;1.25;;;17.70;84.50;;;;;;5092320;28;20492;-72
2022/10/16 07:59:16;;;;;;;2.53;0.90;;;17.70;84.50;;;;;;5090960;28;20024;-73
2022/10/16 08:01:42;;;;;;;2.50;0.90;;;17.70;84.50;;;;;;5091109;28;20020;-73
2022/10/16 08:04:08;;;;;;;1.65;0.98;;;17.70;84.50;;;;;;5091014;28;20016;-73
2022/10/16 08:06:36;;;;;;;2.63;1.00;;;17.70;84.50;;;;;;5090839;28;20024;-73
2022/10/16 08:09:02;;;;;;;2.10;0.80;;;17.70;84.50;;;;;;5090860;28;20031;-73
2022/10/16 08:11:27;;;;;;;3.47;1.00;;;17.70;84.50;;;;;;5092131;28;20020;-72
2022/10/16 08:13:53;;;;;;;3.92;1.30;;;17.70;84.50;;;;;;5090854;28;20413;-73
2022/10/16 08:16:19;;;;;;;3.25;1.00;;;17.70;84.50;;;;;;5096879;28;20024;-72
2022/10/16 08:18:44;;;;;;;1.98;0.70;;;17.70;84.00;;;;;;5109963;28;20027;-72
2022/10/16 08:21:15;;;;;;;1.92;0.90;;;17.70;82.70;;;;;;5112225;28;20417;-72
2022/10/16 08:23:41;;;;;;;1.65;0.90;;;17.60;82.30;;;;;;5112616;28;20020;-72
2022/10/16 08:26:07;;;;;;;1.42;0.80;;;17.60;82.30;;;;;;5111042;28;20396;-72
2022/10/16 08:28:33;;;;;;;2.85;0.80;;;17.60;82.40;;;;;;5094462;28;20160;-72
2022/10/16 08:31:09;;;;;;;1.33;0.70;;;17.60;82.30;;;;;;5111129;28;20111;-72
2022/10/16 08:33:35;;;;;;;1.42;0.70;;;17.60;82.40;;;;;;5114088;28;20019;-72
2022/10/16 08:36:02;;;;;;;1.23;0.73;;;17.60;82.30;;;;;;5114982;28;20606;-72
2022/10/16 08:38:27;;;;;;;1.77;0.70;;;17.60;82.30;;;;;;5116224;28;20026;-72
2022/10/16 08:40:54;;;;;;;2.03;0.70;;;17.60;82.40;;;;;;5115911;28;20027;-73
2022/10/16 08:43:20;;;;;;;1.17;0.88;;;17.60;82.30;;;;;;5114807;28;20477;-72
2022/10/16 08:46:14;;;;;;;1.17;0.80;;;17.60;82.50;;;;;;5114144;28;20089;-72
2022/10/16 08:49:05;;;;;;;3.33;0.80;;;17.60;82.50;;;;;;5095669;28;20521;-72
2022/10/16 08:51:32;;;;;;;1.80;0.77;;;17.60;82.60;;;;;;5077386;28;20501;-72
2022/10/16 08:53:59;;;;;;;3.03;0.85;;;17.50;82.40;;;;;;5077572;28;20036;-72
2022/10/16 08:56:25;;;;;;;0.60;0.60;;;17.60;82.50;;;;;;5094038;28;20234;-72
2022/10/16 08:58:51;;;;;;;1.27;0.73;;;17.50;82.40;;;;;;5077545;28;20021;-72
2022/10/16 09:01:18;;;;;;;2.05;0.70;;;17.50;82.30;;;;;;5060771;28;20139;-72
2022/10/16 09:04:07;;;;;;;0.75;0.60;;;17.50;82.20;;;;;;5095480;28;20027;-72
2022/10/16 09:06:57;;;;;;;1.85;0.70;;;17.50;82.30;;;;;;5094088;28;20085;-72
2022/10/16 09:09:30;;;;;;;1.75;0.85;;;17.50;82.20;;;;;;5093814;28;20024;-72
2022/10/16 09:12:05;;;;;;;1.65;0.70;;;17.50;82.20;;;;;;5094000;28;20059;-72
2022/10/16 09:14:40;;;;;;;1.00;0.50;;;17.50;82.30;;;;;;5091579;28;20021;-72
2022/10/16 09:17:19;;;;;;;2.83;0.60;;;17.50;82.40;;;;;;5081007;28;20099;-72
2022/10/16 09:19:48;;;;;;;1.02;0.60;;;17.50;82.20;;;;;;5085115;28;20016;-73
2022/10/16 09:22:16;;;;;;;1.88;0.65;;;17.50;82.30;;;;;;5075057;28;20024;-72
2022/10/16 09:24:42;;;;;;;1.67;0.70;;;17.50;82.30;;;;;;5080282;28;20061;-72
2022/10/16 09:27:14;;;;;;;23.33;3.20;;;17.50;82.40;;;;;;5076677;28;20012;-72
2022/10/16 09:29:40;;;;;;;36.30;4.38;;;17.50;82.50;;;;;;5076874;28;20016;-72
2022/10/16 09:32:14;;;;;;;21.83;3.45;;;17.50;82.80;;;;;;5073382;28;20025;-72
2022/10/16 09:34:43;;;;;;;25.55;3.47;;;17.50;83.20;;;;;;5071259;28;20029;-73
2022/10/16 09:37:12;;;;;;;33.40;4.55;;;17.50;83.40;;;;;;5071035;28;20020;-72
2022/10/16 09:39:48;;;;;;;26.08;3.75;;;17.50;83.60;;;;;;5071006;28;20060;-72
2022/10/16 09:42:26;;;;;;;16.45;3.80;;;17.50;83.90;;;;;;5070933;28;20402;-72
2022/10/16 09:44:53;;;;;;;27.35;4.05;;;17.50;83.80;;;;;;5070974;28;20059;-72
2022/10/16 09:47:21;;;;;;;24.95;3.80;;;17.50;83.90;;;;;;5085116;28;20063;-72
2022/10/16 09:49:59;;;;;;;22.35;3.78;;;17.50;83.90;;;;;;5093261;28;20016;-72
2022/10/16 09:52:25;;;;;;;25.63;4.55;;;17.50;84.00;;;;;;5092964;28;20016;-72
2022/10/16 09:54:52;;;;;;;26.13;4.28;;;17.50;85.00;;;;;;5093225;28;20456;-72
2022/10/16 09:57:18;;;;;;;23.10;4.20;;;17.50;84.00;;;;;;5092950;28;20399;-72
2022/10/16 09:59:51;;;;;;;25.23;4.47;;;17.50;84.20;;;;;;5093206;28;20020;-72
2022/10/16 10:02:18;;;;;;;25.02;4.60;;;17.50;84.10;;;;;;5093328;28;20128;-72
2022/10/16 10:04:53;;;;;;;24.95;4.70;;;17.50;84.10;;;;;;5076579;28;20440;-73
2022/10/16 10:07:28;;;;;;;24.35;4.30;;;17.50;84.10;;;;;;5076251;28;20066;-72
2022/10/16 10:09:55;;;;;;;21.55;4.72;;;17.50;84.10;;;;;;5093129;28;20028;-72
2022/10/16 10:12:23;;;;;;;30.55;4.90;;;17.50;84.00;;;;;;5076076;28;20027;-72
2022/10/16 10:14:53;;;;;;;19.83;4.45;;;17.50;84.10;;;;;;5076472;28;20043;-72
2022/10/16 10:17:25;;;;;;;18.80;4.32;;;17.50;84.00;;;;;;5089388;28;20023;-72
2022/10/16 10:19:56;;;;;;;21.73;3.85;;;17.50;83.90;;;;;;5096846;28;20069;-72
2022/10/16 10:22:28;;;;;;;24.85;4.85;;;17.50;84.00;;;;;;5096151;28;20030;-72
2022/10/16 10:25:15;;;;;;;26.73;4.22;;;17.50;83.90;;;;;;5113137;28;20546;-72
2022/10/16 10:27:53;;;;;;;22.60;4.40;;;17.50;84.00;;;;;;5113197;28;20435;-72
2022/10/16 10:30:36;;;;;;;23.75;4.63;;;17.50;83.90;;;;;;5114065;28;20098;-72
2022/10/16 10:33:39;;;;;;;21.63;4.13;;;17.50;83.90;;;;;;5113084;28;20023;-72
2022/10/16 10:36:20;;;;;;;19.33;5.07;;;17.50;83.80;;;;;;5113991;28;20020;-72
2022/10/16 10:39:20;;;;;;;17.00;4.10;;;17.40;83.80;;;;;;5112624;28;20096;-72
2022/10/16 10:42:08;;;;;;;23.95;4.65;;;17.40;83.70;;;;;;5112847;28;20107;-72
2022/10/16 10:44:55;;;;;;;19.23;4.28;;;17.40;83.80;;;;;;5112626;28;20019;-72
2022/10/16 10:47:23;;;;;;;20.60;4.20;;;17.50;83.70;;;;;;5098563;28;20024;-72
2022/10/16 10:50:02;;;;;;;21.85;4.32;;;17.40;83.70;;;;;;5093461;28;20038;-72
2022/10/16 10:52:28;;;;;;;16.50;4.22;;;17.40;83.60;;;;;;5075929;28;20028;-72
2022/10/16 10:55:01;;;;;;;13.27;3.92;;;17.40;83.60;;;;;;5092859;28;20371;-72
2022/10/16 10:57:49;;;;;;;17.77;3.80;;;17.40;83.60;;;;;;5092062;28;20078;-72
2022/10/16 11:00:39;;;;;;;15.23;3.47;;;17.40;83.60;;;;;;5093420;28;20028;-72
2022/10/16 11:03:42;;;;;;;12.60;3.67;;;17.40;83.60;;;;;;5092320;28;20161;-72
2022/10/16 11:06:24;;;;;;;14.05;4.20;;;17.40;83.60;;;;;;5092796;28;20024;-72
2022/10/16 11:08:52;;;;;;;22.63;3.90;;;17.40;83.50;;;;;;5075942;28;20028;-72
2022/10/16 11:11:34;;;;;;;19.15;4.30;;;17.40;83.50;;;;;;5092952;28;20024;-72
2022/10/16 11:14:20;;;;;;;12.23;3.83;;;17.40;83.50;;;;;;5075236;28;20020;-73
2022/10/16 11:16:52;;;;;;;14.32;4.05;;;17.40;83.50;;;;;;5100190;28;20020;-72
2022/10/16 11:19:21;;;;;;;;;;;17.40;83.50;;;;;;5112499;28;20424;-72
2022/10/16 11:21:51;;;;;;;11.20;3.55;;;17.40;83.40;;;;;;5112933;28;19918;-72
2022/10/16 11:24:23;;;;;;;11.52;3.33;;;17.40;83.40;;;;;;5113126;28;20030;-73
2022/10/16 11:26:49;;;;;;;13.45;3.55;;;17.40;84.40;;;;;;5095884;28;20165;-72
2022/10/16 11:29:19;;;;;;;13.80;3.45;;;17.40;83.40;;;;;;5094869;28;20118;-72
2022/10/16 11:31:58;;;;;;;11.85;3.55;;;17.40;83.40;;;;;;5095083;28;20378;-73
2022/10/16 11:34:40;;;;;;;13.95;3.88;;;17.40;83.30;;;;;;5095056;28;20428;-72
2022/10/16 11:37:12;;;;;;;14.43;3.60;;;17.40;83.30;;;;;;5111787;28;20027;-72
2022/10/16 11:39:38;;;;;;;10.80;3.03;;;17.30;83.20;;;;;;5095319;28;20069;-72
2022/10/16 11:42:10;;;;;;;13.07;3.65;;;17.40;83.30;;;;;;5094936;28;20028;-72
2022/10/16 11:45:08;;;;;;;14.82;3.80;;;17.40;83.30;;;;;;5111386;28;20023;-72
2022/10/16 11:47:35;;;;;;;15.77;3.63;;;17.40;83.30;;;;;;5080294;28;20032;-72
2022/10/16 11:50:17;;;;;;;14.13;3.33;;;17.40;83.30;;;;;;5091203;28;20031;-72
2022/10/16 11:53:27;;;;;;;15.37;3.30;;;17.40;83.30;;;;;;5091257;28;20072;-72
2022/10/16 11:55:52;;;;;;;9.38;3.47;;;17.40;83.20;;;;;;5049975;28;20260;-72
2022/10/16 11:58:30;;;;;;;13.73;3.63;;;17.40;83.20;;;;;;5033202;28;20029;-72
2022/10/16 12:01:11;;;;;;;12.65;3.08;;;17.30;83.20;;;;;;5050040;28;20040;-72
2022/10/16 12:03:55;;;;;;;11.75;2.72;;;17.30;83.20;;;;;;5049891;28;20029;-72
2022/10/16 12:06:50;;;;;;;8.25;2.95;;;17.30;83.20;;;;;;5033924;28;20400;-72
2022/10/16 12:09:27;;;;;;;11.82;3.40;;;17.30;83.10;;;;;;5053395;28;20041;-72
2022/10/16 12:11:52;;;;;;;12.98;3.50;;;17.30;83.10;;;;;;5037379;28;20054;-72
2022/10/16 12:14:35;;;;;;;13.15;3.70;;;17.30;83.10;;;;;;5037301;28;20029;-72
2022/10/16 12:17:02;;;;;;;;;;;17.30;83.20;;;;;;5048793;28;20021;-72
2022/10/16 12:19:29;;;;;;;13.35;3.30;;;17.30;83.10;;;;;;5056886;28;19912;-72
2022/10/16 12:21:59;;;;;;;14.50;3.28;;;17.30;83.10;;;;;;5024102;28;20085;-72
2022/10/16 12:24:42;;;;;;;10.15;3.10;;;17.30;83.10;;;;;;5057311;28;20039;-72
2022/10/16 12:27:30;;;;;;;12.20;3.42;;;17.30;83.10;;;;;;5083423;28;20062;-72
2022/10/16 12:29:58;;;;;;;9.75;2.97;;;17.30;83.10;;;;;;5102815;28;20417;-72
2022/10/16 12:32:37;;;;;;;9.93;2.92;;;17.30;83.10;;;;;;5116355;28;20020;-72
2022/10/16 12:35:04;;;;;;;8.35;3.03;;;17.30;83.10;;;;;;5098841;28;20068;-72
2022/10/16 12:37:36;;;;;;;10.45;3.00;;;17.30;83.10;;;;;;5098277;28;20028;-72
2022/10/16 12:40:21;;;;;;;;;;;17.30;83.10;;;;;;5098646;28;20020;-72
2022/10/16 12:42:46;;;;;;;11.38;2.85;;;17.30;83.00;;;;;;5116338;28;20293;-72
2022/10/16 12:45:32;;;;;;;14.60;3.20;;;17.30;83.20;;;;;;5114979;28;20027;-72
2022/10/16 12:47:59;;;;;;;9.95;3.22;;;17.30;83.10;;;;;;5077698;28;20027;-72
2022/10/16 12:50:33;;;;;;;8.43;3.10;;;17.30;83.10;;;;;;5077674;28;20070;-72
2022/10/16 12:52:59;;;;;;;7.70;2.58;;;17.30;83.10;;;;;;5094391;28;20457;-72
2022/10/16 12:55:25;;;;;;;12.35;3.42;;;17.30;83.10;;;;;;5094532;28;20032;-72
2022/10/16 12:58:00;;;;;;;8.70;2.88;;;17.30;83.10;;;;;;5077503;28;20020;-72